sensor_id;sensor_type;location;lat;lon;timestamp;temperature;humidity
41922;DHT22;27609;51.002;5.354;2024-02-21T00:00:47;9.70;99.90
41922;DHT22;27609;51.002;5.354;2024-02-21T00:03:13;9.60;99.90
41922;DHT22;27609;51.002;5.354;2024-02-21T00:05:39;9.70;99.90
41922;DHT22;27609;51.002;5.354;2024-02-21T00:08:05;9.70;99.90
41922;DHT22;27609;51.002;5.354;2024-02-21T00:10:30;9.70;99.90
41922;DHT22;27609;51.002;5.354;2024-02-21T00:13:00;9.80;99.90
41922;DHT22;27609;51.002;5.354;2024-02-21T00:15:26;9.70;99.90
41922;DHT22;27609;51.002;5.354;2024-02-21T00:17:52;9.80;99.90
41922;DHT22;27609;51.002;5.354;2024-02-21T00:20:18;9.60;99.90
41922;DHT22;27609;51.002;5.354;2024-02-21T00:22:44;9.70;99.90
41922;DHT22;27609;51.002;5.354;2024-02-21T00:25:10;9.80;99.90
41922;DHT22;27609;51.002;5.354;2024-02-21T00:27:35;9.70;99.90
41922;DHT22;27609;51.002;5.354;2024-02-21T00:30:02;9.70;99.90
41922;DHT22;27609;51.002;5.354;2024-02-21T00:32:27;9.50;99.90
41922;DHT22;27609;51.002;5.354;2024-02-21T00:34:53;9.50;99.90
41922;DHT22;27609;51.002;5.354;2024-02-21T00:37:19;9.40;99.90
41922;DHT22;27609;51.002;5.354;2024-02-21T00:39:44;9.40;99.90
41922;DHT22;27609;51.002;5.354;2024-02-21T00:42:10;9.40;99.90
41922;DHT22;27609;51.002;5.354;2024-02-21T00:44:36;9.40;99.90
41922;DHT22;27609;51.002;5.354;2024-02-21T00:47:01;9.50;99.90
41922;DHT22;27609;51.002;5.354;2024-02-21T00:49:27;9.60;99.90
41922;DHT22;27609;51.002;5.354;2024-02-21T00:51:53;9.60;99.90
41922;DHT22;27609;51.002;5.354;2024-02-21T00:54:18;9.60;99.90
41922;DHT22;27609;51.002;5.354;2024-02-21T00:56:44;9.60;99.90
41922;DHT22;27609;51.002;5.354;2024-02-21T00:59:09;9.80;99.90
41922;DHT22;27609;51.002;5.354;2024-02-21T01:01:35;9.70;99.90
41922;DHT22;27609;51.002;5.354;2024-02-21T01:04:01;9.70;99.90
41922;DHT22;27609;51.002;5.354;2024-02-21T01:06:26;9.70;99.90
41922;DHT22;27609;51.002;5.354;2024-02-21T01:08:52;9.00;99.90
41922;DHT22;27609;51.002;5.354;2024-02-21T01:11:18;9.50;99.90
41922;DHT22;27609;51.002;5.354;2024-02-21T01:13:44;9.50;99.90
41922;DHT22;27609;51.002;5.354;2024-02-21T01:16:10;9.60;99.90
41922;DHT22;27609;51.002;5.354;2024-02-21T01:18:38;9.60;99.90
41922;DHT22;27609;51.002;5.354;2024-02-21T01:21:07;9.60;99.90
41922;DHT22;27609;51.002;5.354;2024-02-21T01:23:37;9.60;99.90
41922;DHT22;27609;51.002;5.354;2024-02-21T01:26:03;9.60;99.90
41922;DHT22;27609;51.002;5.354;2024-02-21T01:28:30;9.60;99.90
41922;DHT22;27609;51.002;5.354;2024-02-21T01:30:56;9.50;99.90
41922;DHT22;27609;51.002;5.354;2024-02-21T01:33:22;9.60;99.90
41922;DHT22;27609;51.002;5.354;2024-02-21T01:35:48;9.60;99.90
41922;DHT22;27609;51.002;5.354;2024-02-21T01:38:14;9.40;99.90
41922;DHT22;27609;51.002;5.354;2024-02-21T01:40:40;9.40;99.90
41922;DHT22;27609;51.002;5.354;2024-02-21T01:43:16;9.50;99.90
41922;DHT22;27609;51.002;5.354;2024-02-21T01:45:42;9.50;99.90
41922;DHT22;27609;51.002;5.354;2024-02-21T01:48:08;9.40;99.90
41922;DHT22;27609;51.002;5.354;2024-02-21T01:50:33;9.40;99.90
41922;DHT22;27609;51.002;5.354;2024-02-21T01:53:00;9.50;99.90
41922;DHT22;27609;51.002;5.354;2024-02-21T01:55:25;9.60;99.90
41922;DHT22;27609;51.002;5.354;2024-02-21T01:57:51;9.60;99.90
41922;DHT22;27609;51.002;5.354;2024-02-21T02:00:17;9.60;99.90
41922;DHT22;27609;51.002;5.354;2024-02-21T02:02:44;9.60;99.90
41922;DHT22;27609;51.002;5.354;2024-02-21T02:05:11;9.50;99.90
41922;DHT22;27609;51.002;5.354;2024-02-21T02:07:37;9.50;99.90
41922;DHT22;27609;51.002;5.354;2024-02-21T02:10:03;9.60;99.90
41922;DHT22;27609;51.002;5.354;2024-02-21T02:12:29;9.60;99.90
41922;DHT22;27609;51.002;5.354;2024-02-21T02:15:01;9.70;99.90
41922;DHT22;27609;51.002;5.354;2024-02-21T02:17:30;9.70;99.90
41922;DHT22;27609;51.002;5.354;2024-02-21T02:19:56;9.70;99.90
41922;DHT22;27609;51.002;5.354;2024-02-21T02:22:24;9.60;99.90
41922;DHT22;27609;51.002;5.354;2024-02-21T02:24:51;9.60;99.90
41922;DHT22;27609;51.002;5.354;2024-02-21T02:27:16;9.60;99.90
41922;DHT22;27609;51.002;5.354;2024-02-21T02:29:42;9.50;99.90
41922;DHT22;27609;51.002;5.354;2024-02-21T02:32:08;9.50;99.90
41922;DHT22;27609;51.002;5.354;2024-02-21T02:34:34;9.50;99.90
41922;DHT22;27609;51.002;5.354;2024-02-21T02:37:00;9.40;99.90
41922;DHT22;27609;51.002;5.354;2024-02-21T02:39:25;9.50;99.90
41922;DHT22;27609;51.002;5.354;2024-02-21T02:41:51;9.50;99.90
41922;DHT22;27609;51.002;5.354;2024-02-21T02:44:17;9.50;99.90
41922;DHT22;27609;51.002;5.354;2024-02-21T02:46:42;9.50;99.90
41922;DHT22;27609;51.002;5.354;2024-02-21T02:49:08;9.50;99.90
41922;DHT22;27609;51.002;5.354;2024-02-21T02:51:34;9.60;99.90
41922;DHT22;27609;51.002;5.354;2024-02-21T02:54:00;9.50;99.90
41922;DHT22;27609;51.002;5.354;2024-02-21T02:56:25;9.40;99.90
41922;DHT22;27609;51.002;5.354;2024-02-21T02:58:51;9.40;99.90
41922;DHT22;27609;51.002;5.354;2024-02-21T03:01:17;9.30;99.90
41922;DHT22;27609;51.002;5.354;2024-02-21T03:03:42;9.30;99.90
41922;DHT22;27609;51.002;5.354;2024-02-21T03:06:08;9.30;99.90
41922;DHT22;27609;51.002;5.354;2024-02-21T03:08:34;9.40;99.90
41922;DHT22;27609;51.002;5.354;2024-02-21T03:11:00;9.50;99.90
41922;DHT22;27609;51.002;5.354;2024-02-21T03:13:26;9.50;99.90
41922;DHT22;27609;51.002;5.354;2024-02-21T03:15:52;9.50;99.90
41922;DHT22;27609;51.002;5.354;2024-02-21T03:18:17;9.50;99.90
41922;DHT22;27609;51.002;5.354;2024-02-21T03:20:43;9.50;99.90
41922;DHT22;27609;51.002;5.354;2024-02-21T03:23:08;9.50;99.90
41922;DHT22;27609;51.002;5.354;2024-02-21T03:25:34;9.40;99.90
41922;DHT22;27609;51.002;5.354;2024-02-21T03:28:00;9.40;99.90
41922;DHT22;27609;51.002;5.354;2024-02-21T03:30:25;9.30;99.90
41922;DHT22;27609;51.002;5.354;2024-02-21T03:32:51;9.20;99.90
41922;DHT22;27609;51.002;5.354;2024-02-21T03:35:17;9.20;99.90
41922;DHT22;27609;51.002;5.354;2024-02-21T03:37:45;9.20;99.90
41922;DHT22;27609;51.002;5.354;2024-02-21T03:40:11;9.20;99.90
41922;DHT22;27609;51.002;5.354;2024-02-21T03:42:37;9.10;99.90
41922;DHT22;27609;51.002;5.354;2024-02-21T03:45:04;9.10;99.90
41922;DHT22;27609;51.002;5.354;2024-02-21T03:47:29;9.10;99.90
41922;DHT22;27609;51.002;5.354;2024-02-21T03:49:55;9.00;99.90
41922;DHT22;27609;51.002;5.354;2024-02-21T03:52:21;9.00;99.90
41922;DHT22;27609;51.002;5.354;2024-02-21T03:54:46;8.90;99.90
41922;DHT22;27609;51.002;5.354;2024-02-21T03:57:12;8.90;99.90
41922;DHT22;27609;51.002;5.354;2024-02-21T03:59:38;8.90;99.90
41922;DHT22;27609;51.002;5.354;2024-02-21T04:02:05;8.90;99.90
41922;DHT22;27609;51.002;5.354;2024-02-21T04:04:34;8.90;99.90
41922;DHT22;27609;51.002;5.354;2024-02-21T04:07:02;8.80;99.90
41922;DHT22;27609;51.002;5.354;2024-02-21T04:09:35;8.80;99.90
41922;DHT22;27609;51.002;5.354;2024-02-21T04:12:01;8.90;99.90
41922;DHT22;27609;51.002;5.354;2024-02-21T04:14:26;8.90;99.90
41922;DHT22;27609;51.002;5.354;2024-02-21T04:16:52;8.90;99.90
41922;DHT22;27609;51.002;5.354;2024-02-21T04:19:18;8.90;99.90
41922;DHT22;27609;51.002;5.354;2024-02-21T04:21:43;8.90;99.90
41922;DHT22;27609;51.002;5.354;2024-02-21T04:24:10;8.80;99.90
41922;DHT22;27609;51.002;5.354;2024-02-21T04:26:35;8.80;99.90
41922;DHT22;27609;51.002;5.354;2024-02-21T04:29:01;8.80;99.90
41922;DHT22;27609;51.002;5.354;2024-02-21T04:31:27;8.80;99.90
41922;DHT22;27609;51.002;5.354;2024-02-21T04:33:53;8.80;99.90
41922;DHT22;27609;51.002;5.354;2024-02-21T04:36:18;8.90;99.90
41922;DHT22;27609;51.002;5.354;2024-02-21T04:38:44;8.90;99.90
41922;DHT22;27609;51.002;5.354;2024-02-21T04:41:10;8.80;99.90
41922;DHT22;27609;51.002;5.354;2024-02-21T04:43:36;8.90;99.90
41922;DHT22;27609;51.002;5.354;2024-02-21T04:46:01;9.00;99.90
41922;DHT22;27609;51.002;5.354;2024-02-21T04:48:27;9.00;99.90
41922;DHT22;27609;51.002;5.354;2024-02-21T04:50:53;8.90;99.90
41922;DHT22;27609;51.002;5.354;2024-02-21T04:53:18;8.90;99.90
41922;DHT22;27609;51.002;5.354;2024-02-21T04:55:44;8.90;99.90
41922;DHT22;27609;51.002;5.354;2024-02-21T04:58:10;8.90;99.90
41922;DHT22;27609;51.002;5.354;2024-02-21T05:00:35;8.80;99.90
41922;DHT22;27609;51.002;5.354;2024-02-21T05:03:01;8.80;99.90
41922;DHT22;27609;51.002;5.354;2024-02-21T05:05:27;8.70;99.90
41922;DHT22;27609;51.002;5.354;2024-02-21T05:07:52;8.80;99.90
41922;DHT22;27609;51.002;5.354;2024-02-21T05:10:18;8.80;99.90
41922;DHT22;27609;51.002;5.354;2024-02-21T05:12:45;8.80;99.90
41922;DHT22;27609;51.002;5.354;2024-02-21T05:15:10;8.80;99.90
41922;DHT22;27609;51.002;5.354;2024-02-21T05:17:36;8.70;99.90
41922;DHT22;27609;51.002;5.354;2024-02-21T05:20:02;8.70;99.90
41922;DHT22;27609;51.002;5.354;2024-02-21T05:22:28;8.60;99.90
41922;DHT22;27609;51.002;5.354;2024-02-21T05:24:53;8.70;99.90
41922;DHT22;27609;51.002;5.354;2024-02-21T05:27:19;8.70;99.90
41922;DHT22;27609;51.002;5.354;2024-02-21T05:29:45;8.70;99.90
41922;DHT22;27609;51.002;5.354;2024-02-21T05:32:11;8.60;99.90
41922;DHT22;27609;51.002;5.354;2024-02-21T05:34:36;8.70;99.90
41922;DHT22;27609;51.002;5.354;2024-02-21T05:37:02;8.80;99.90
41922;DHT22;27609;51.002;5.354;2024-02-21T05:39:28;8.70;99.90
41922;DHT22;27609;51.002;5.354;2024-02-21T05:41:55;8.70;99.90
41922;DHT22;27609;51.002;5.354;2024-02-21T05:44:20;8.60;99.90
41922;DHT22;27609;51.002;5.354;2024-02-21T05:46:47;8.70;99.90
41922;DHT22;27609;51.002;5.354;2024-02-21T05:49:13;8.70;99.90
41922;DHT22;27609;51.002;5.354;2024-02-21T05:51:39;8.80;99.90
41922;DHT22;27609;51.002;5.354;2024-02-21T05:54:05;8.70;99.90
41922;DHT22;27609;51.002;5.354;2024-02-21T05:56:32;8.70;99.90
41922;DHT22;27609;51.002;5.354;2024-02-21T05:58:58;8.80;99.90
41922;DHT22;27609;51.002;5.354;2024-02-21T06:01:24;8.80;99.90
41922;DHT22;27609;51.002;5.354;2024-02-21T06:03:50;8.80;99.90
41922;DHT22;27609;51.002;5.354;2024-02-21T06:06:15;8.80;99.90
41922;DHT22;27609;51.002;5.354;2024-02-21T06:08:41;8.70;99.90
41922;DHT22;27609;51.002;5.354;2024-02-21T06:11:07;8.80;99.90
41922;DHT22;27609;51.002;5.354;2024-02-21T06:13:33;8.80;99.90
41922;DHT22;27609;51.002;5.354;2024-02-21T06:15:58;8.80;99.90
41922;DHT22;27609;51.002;5.354;2024-02-21T06:18:24;8.80;99.90
41922;DHT22;27609;51.002;5.354;2024-02-21T06:20:50;8.80;99.90
41922;DHT22;27609;51.002;5.354;2024-02-21T06:23:16;8.70;99.90
41922;DHT22;27609;51.002;5.354;2024-02-21T06:25:42;8.70;99.90
41922;DHT22;27609;51.002;5.354;2024-02-21T06:28:08;8.60;99.90
41922;DHT22;27609;51.002;5.354;2024-02-21T06:30:35;8.60;99.90
41922;DHT22;27609;51.002;5.354;2024-02-21T06:33:00;8.60;99.90
41922;DHT22;27609;51.002;5.354;2024-02-21T06:35:28;8.60;99.90
41922;DHT22;27609;51.002;5.354;2024-02-21T06:37:54;8.50;99.90
41922;DHT22;27609;51.002;5.354;2024-02-21T06:40:21;8.50;99.90
41922;DHT22;27609;51.002;5.354;2024-02-21T06:42:48;8.60;99.90
41922;DHT22;27609;51.002;5.354;2024-02-21T06:45:14;8.60;99.90
41922;DHT22;27609;51.002;5.354;2024-02-21T06:47:40;8.60;99.90
41922;DHT22;27609;51.002;5.354;2024-02-21T06:50:06;8.60;99.90
41922;DHT22;27609;51.002;5.354;2024-02-21T06:52:31;8.50;99.90
41922;DHT22;27609;51.002;5.354;2024-02-21T06:54:57;8.50;99.90
41922;DHT22;27609;51.002;5.354;2024-02-21T06:57:23;8.50;99.90
41922;DHT22;27609;51.002;5.354;2024-02-21T06:59:49;8.50;99.90
41922;DHT22;27609;51.002;5.354;2024-02-21T07:02:14;8.50;99.90
41922;DHT22;27609;51.002;5.354;2024-02-21T07:04:40;8.50;99.90
41922;DHT22;27609;51.002;5.354;2024-02-21T07:07:06;8.40;99.90
41922;DHT22;27609;51.002;5.354;2024-02-21T07:09:32;8.40;99.90
41922;DHT22;27609;51.002;5.354;2024-02-21T07:11:58;8.40;99.90
41922;DHT22;27609;51.002;5.354;2024-02-21T07:14:24;8.30;99.90
41922;DHT22;27609;51.002;5.354;2024-02-21T07:16:51;8.30;99.90
41922;DHT22;27609;51.002;5.354;2024-02-21T07:19:16;8.20;99.90
41922;DHT22;27609;51.002;5.354;2024-02-21T07:21:42;8.30;99.90
41922;DHT22;27609;51.002;5.354;2024-02-21T07:24:08;8.20;99.90
41922;DHT22;27609;51.002;5.354;2024-02-21T07:26:34;8.20;99.90
41922;DHT22;27609;51.002;5.354;2024-02-21T07:29:00;8.20;99.90
41922;DHT22;27609;51.002;5.354;2024-02-21T07:31:26;8.10;99.90
41922;DHT22;27609;51.002;5.354;2024-02-21T07:33:51;8.10;99.90
41922;DHT22;27609;51.002;5.354;2024-02-21T07:36:28;8.10;99.90
41922;DHT22;27609;51.002;5.354;2024-02-21T07:38:54;8.00;99.90
41922;DHT22;27609;51.002;5.354;2024-02-21T07:41:19;8.00;99.90
41922;DHT22;27609;51.002;5.354;2024-02-21T07:43:45;8.00;99.90
41922;DHT22;27609;51.002;5.354;2024-02-21T07:46:10;8.00;99.90
41922;DHT22;27609;51.002;5.354;2024-02-21T07:48:36;8.00;99.90
41922;DHT22;27609;51.002;5.354;2024-02-21T07:51:02;8.00;99.90
41922;DHT22;27609;51.002;5.354;2024-02-21T07:53:28;8.00;99.90
41922;DHT22;27609;51.002;5.354;2024-02-21T07:55:53;8.10;99.90
41922;DHT22;27609;51.002;5.354;2024-02-21T07:58:19;8.10;99.90
41922;DHT22;27609;51.002;5.354;2024-02-21T08:00:45;8.00;99.90
41922;DHT22;27609;51.002;5.354;2024-02-21T08:03:10;8.10;99.90
41922;DHT22;27609;51.002;5.354;2024-02-21T08:05:36;8.10;99.90
41922;DHT22;27609;51.002;5.354;2024-02-21T08:08:03;8.10;99.90
41922;DHT22;27609;51.002;5.354;2024-02-21T08:10:29;8.10;99.90
41922;DHT22;27609;51.002;5.354;2024-02-21T08:12:55;8.10;99.90
41922;DHT22;27609;51.002;5.354;2024-02-21T08:15:20;8.20;99.90
41922;DHT22;27609;51.002;5.354;2024-02-21T08:17:49;8.20;99.90
41922;DHT22;27609;51.002;5.354;2024-02-21T08:20:15;8.30;99.90
41922;DHT22;27609;51.002;5.354;2024-02-21T08:22:41;8.30;99.90
41922;DHT22;27609;51.002;5.354;2024-02-21T08:25:06;8.30;99.90
41922;DHT22;27609;51.002;5.354;2024-02-21T08:27:32;8.40;99.90
41922;DHT22;27609;51.002;5.354;2024-02-21T08:29:58;8.40;99.90
41922;DHT22;27609;51.002;5.354;2024-02-21T08:32:24;8.40;99.90
41922;DHT22;27609;51.002;5.354;2024-02-21T08:34:49;8.50;99.90
41922;DHT22;27609;51.002;5.354;2024-02-21T08:37:15;8.60;99.90
41922;DHT22;27609;51.002;5.354;2024-02-21T08:39:41;8.60;99.90
41922;DHT22;27609;51.002;5.354;2024-02-21T08:42:06;8.70;99.90
41922;DHT22;27609;51.002;5.354;2024-02-21T08:44:32;8.80;99.90
41922;DHT22;27609;51.002;5.354;2024-02-21T08:46:58;8.80;99.90
41922;DHT22;27609;51.002;5.354;2024-02-21T08:49:24;8.90;99.90
41922;DHT22;27609;51.002;5.354;2024-02-21T08:51:52;8.90;99.90
41922;DHT22;27609;51.002;5.354;2024-02-21T08:54:18;8.90;99.90
41922;DHT22;27609;51.002;5.354;2024-02-21T08:56:44;8.90;99.90
41922;DHT22;27609;51.002;5.354;2024-02-21T08:59:09;9.00;99.90
41922;DHT22;27609;51.002;5.354;2024-02-21T09:01:35;9.00;99.90
41922;DHT22;27609;51.002;5.354;2024-02-21T09:04:01;9.00;99.90
41922;DHT22;27609;51.002;5.354;2024-02-21T09:06:28;9.00;99.90
41922;DHT22;27609;51.002;5.354;2024-02-21T09:08:56;9.10;99.90
41922;DHT22;27609;51.002;5.354;2024-02-21T09:11:22;9.10;99.90
41922;DHT22;27609;51.002;5.354;2024-02-21T09:13:48;9.10;99.90
41922;DHT22;27609;51.002;5.354;2024-02-21T09:16:14;9.10;99.90
41922;DHT22;27609;51.002;5.354;2024-02-21T09:18:40;9.10;99.90
41922;DHT22;27609;51.002;5.354;2024-02-21T09:21:06;9.10;99.90
41922;DHT22;27609;51.002;5.354;2024-02-21T09:23:31;9.10;99.90
41922;DHT22;27609;51.002;5.354;2024-02-21T09:25:58;9.20;99.90
41922;DHT22;27609;51.002;5.354;2024-02-21T09:28:26;9.20;99.90
41922;DHT22;27609;51.002;5.354;2024-02-21T09:30:51;9.20;99.90
41922;DHT22;27609;51.002;5.354;2024-02-21T09:33:17;9.30;99.90
41922;DHT22;27609;51.002;5.354;2024-02-21T09:35:44;9.30;99.90
41922;DHT22;27609;51.002;5.354;2024-02-21T09:38:10;9.30;99.90
41922;DHT22;27609;51.002;5.354;2024-02-21T09:40:36;9.20;99.90
41922;DHT22;27609;51.002;5.354;2024-02-21T09:43:04;9.20;99.90
41922;DHT22;27609;51.002;5.354;2024-02-21T09:45:33;9.30;99.90
41922;DHT22;27609;51.002;5.354;2024-02-21T09:48:41;9.30;99.90
41922;DHT22;27609;51.002;5.354;2024-02-21T09:51:12;9.30;99.90
41922;DHT22;27609;51.002;5.354;2024-02-21T09:53:40;9.40;99.90
41922;DHT22;27609;51.002;5.354;2024-02-21T09:56:10;9.50;99.90
41922;DHT22;27609;51.002;5.354;2024-02-21T09:58:37;9.60;99.90
41922;DHT22;27609;51.002;5.354;2024-02-21T10:01:03;9.70;99.90
41922;DHT22;27609;51.002;5.354;2024-02-21T10:03:33;9.70;99.90
41922;DHT22;27609;51.002;5.354;2024-02-21T10:05:59;9.80;99.90
41922;DHT22;27609;51.002;5.354;2024-02-21T10:08:26;9.80;99.90
41922;DHT22;27609;51.002;5.354;2024-02-21T10:10:52;9.90;99.90
41922;DHT22;27609;51.002;5.354;2024-02-21T10:13:29;9.90;99.90
41922;DHT22;27609;51.002;5.354;2024-02-21T10:16:05;10.00;99.90
41922;DHT22;27609;51.002;5.354;2024-02-21T10:18:32;10.00;99.90
41922;DHT22;27609;51.002;5.354;2024-02-21T10:21:05;10.00;99.90
41922;DHT22;27609;51.002;5.354;2024-02-21T10:23:44;10.10;99.90
41922;DHT22;27609;51.002;5.354;2024-02-21T10:26:10;10.20;99.90
41922;DHT22;27609;51.002;5.354;2024-02-21T10:28:37;10.30;99.90
41922;DHT22;27609;51.002;5.354;2024-02-21T10:31:10;10.30;99.90
41922;DHT22;27609;51.002;5.354;2024-02-21T10:33:37;10.40;99.90
41922;DHT22;27609;51.002;5.354;2024-02-21T10:36:07;10.40;99.90
41922;DHT22;27609;51.002;5.354;2024-02-21T10:38:35;10.50;99.90
41922;DHT22;27609;51.002;5.354;2024-02-21T10:41:01;10.50;99.90
41922;DHT22;27609;51.002;5.354;2024-02-21T10:43:33;10.40;99.90
41922;DHT22;27609;51.002;5.354;2024-02-21T10:46:00;10.50;99.90
41922;DHT22;27609;51.002;5.354;2024-02-21T10:48:41;10.50;99.90
41922;DHT22;27609;51.002;5.354;2024-02-21T10:51:17;10.50;99.90
41922;DHT22;27609;51.002;5.354;2024-02-21T10:54:05;10.40;99.90
41922;DHT22;27609;51.002;5.354;2024-02-21T10:56:34;10.40;99.90
41922;DHT22;27609;51.002;5.354;2024-02-21T10:59:04;10.40;99.90
41922;DHT22;27609;51.002;5.354;2024-02-21T11:01:30;10.50;99.90
41922;DHT22;27609;51.002;5.354;2024-02-21T11:04:04;10.50;99.90
41922;DHT22;27609;51.002;5.354;2024-02-21T11:06:30;10.60;99.90
41922;DHT22;27609;51.002;5.354;2024-02-21T11:09:04;10.70;99.90
41922;DHT22;27609;51.002;5.354;2024-02-21T11:11:33;10.80;99.90
41922;DHT22;27609;51.002;5.354;2024-02-21T11:14:17;10.80;99.90
41922;DHT22;27609;51.002;5.354;2024-02-21T11:16:43;11.00;99.90
41922;DHT22;27609;51.002;5.354;2024-02-21T11:19:19;11.10;99.90
41922;DHT22;27609;51.002;5.354;2024-02-21T11:21:45;11.10;99.90
41922;DHT22;27609;51.002;5.354;2024-02-21T11:24:11;11.10;99.90
41922;DHT22;27609;51.002;5.354;2024-02-21T11:26:40;11.00;99.90
41922;DHT22;27609;51.002;5.354;2024-02-21T11:29:07;11.20;99.90
41922;DHT22;27609;51.002;5.354;2024-02-21T11:31:41;11.60;99.90
41922;DHT22;27609;51.002;5.354;2024-02-21T11:34:11;11.60;99.90
41922;DHT22;27609;51.002;5.354;2024-02-21T11:36:47;11.50;99.90
41922;DHT22;27609;51.002;5.354;2024-02-21T11:39:25;11.30;99.90
41922;DHT22;27609;51.002;5.354;2024-02-21T11:42:07;11.30;99.90
41922;DHT22;27609;51.002;5.354;2024-02-21T11:44:38;11.40;99.90
41922;DHT22;27609;51.002;5.354;2024-02-21T11:47:04;11.40;99.90
41922;DHT22;27609;51.002;5.354;2024-02-21T11:49:31;11.30;99.90
41922;DHT22;27609;51.002;5.354;2024-02-21T11:52:00;11.50;99.90
41922;DHT22;27609;51.002;5.354;2024-02-21T11:54:27;11.50;99.90
41922;DHT22;27609;51.002;5.354;2024-02-21T11:56:53;11.90;99.90
41922;DHT22;27609;51.002;5.354;2024-02-21T11:59:19;11.90;99.90
41922;DHT22;27609;51.002;5.354;2024-02-21T12:01:44;11.90;99.90
41922;DHT22;27609;51.002;5.354;2024-02-21T12:04:10;12.00;99.90
41922;DHT22;27609;51.002;5.354;2024-02-21T12:06:36;11.90;99.90
41922;DHT22;27609;51.002;5.354;2024-02-21T12:09:02;12.30;99.90
41922;DHT22;27609;51.002;5.354;2024-02-21T12:11:28;12.70;99.90
41922;DHT22;27609;51.002;5.354;2024-02-21T12:14:03;12.70;99.90
41922;DHT22;27609;51.002;5.354;2024-02-21T12:16:31;12.50;99.90
41922;DHT22;27609;51.002;5.354;2024-02-21T12:19:00;12.40;99.90
41922;DHT22;27609;51.002;5.354;2024-02-21T12:21:31;12.20;99.90
41922;DHT22;27609;51.002;5.354;2024-02-21T12:23:58;12.10;99.90
41922;DHT22;27609;51.002;5.354;2024-02-21T12:26:24;11.80;99.90
41922;DHT22;27609;51.002;5.354;2024-02-21T12:28:50;11.60;99.90
41922;DHT22;27609;51.002;5.354;2024-02-21T12:31:16;11.50;99.90
41922;DHT22;27609;51.002;5.354;2024-02-21T12:33:43;11.40;99.90
41922;DHT22;27609;51.002;5.354;2024-02-21T12:36:09;11.40;99.90
41922;DHT22;27609;51.002;5.354;2024-02-21T12:38:35;10.60;99.90
41922;DHT22;27609;51.002;5.354;2024-02-21T12:41:01;11.40;99.90
41922;DHT22;27609;51.002;5.354;2024-02-21T12:43:27;11.30;99.90
41922;DHT22;27609;51.002;5.354;2024-02-21T12:45:53;11.40;99.90
41922;DHT22;27609;51.002;5.354;2024-02-21T12:48:19;11.40;99.90
41922;DHT22;27609;51.002;5.354;2024-02-21T12:50:51;11.30;99.90
41922;DHT22;27609;51.002;5.354;2024-02-21T12:53:20;11.20;99.90
41922;DHT22;27609;51.002;5.354;2024-02-21T12:55:50;11.30;99.90
41922;DHT22;27609;51.002;5.354;2024-02-21T12:58:16;11.20;99.90
41922;DHT22;27609;51.002;5.354;2024-02-21T13:00:42;11.20;99.90
41922;DHT22;27609;51.002;5.354;2024-02-21T13:03:08;11.20;99.90
41922;DHT22;27609;51.002;5.354;2024-02-21T13:05:37;11.10;99.90
41922;DHT22;27609;51.002;5.354;2024-02-21T13:08:05;11.10;99.90
41922;DHT22;27609;51.002;5.354;2024-02-21T13:10:31;11.10;99.90
41922;DHT22;27609;51.002;5.354;2024-02-21T13:12:58;11.20;99.90
41922;DHT22;27609;51.002;5.354;2024-02-21T13:15:24;11.10;99.90
41922;DHT22;27609;51.002;5.354;2024-02-21T13:17:50;11.10;99.90
41922;DHT22;27609;51.002;5.354;2024-02-21T13:20:15;11.10;99.90
41922;DHT22;27609;51.002;5.354;2024-02-21T13:22:41;11.10;99.90
41922;DHT22;27609;51.002;5.354;2024-02-21T13:25:07;11.20;99.90
41922;DHT22;27609;51.002;5.354;2024-02-21T13:27:33;11.20;99.90
41922;DHT22;27609;51.002;5.354;2024-02-21T13:29:59;11.30;99.90
41922;DHT22;27609;51.002;5.354;2024-02-21T13:32:27;11.20;99.90
41922;DHT22;27609;51.002;5.354;2024-02-21T13:34:52;11.20;99.90
41922;DHT22;27609;51.002;5.354;2024-02-21T13:37:18;11.20;99.90
41922;DHT22;27609;51.002;5.354;2024-02-21T13:39:44;11.20;99.90
41922;DHT22;27609;51.002;5.354;2024-02-21T13:42:09;11.30;99.90
41922;DHT22;27609;51.002;5.354;2024-02-21T13:44:35;11.30;99.90
41922;DHT22;27609;51.002;5.354;2024-02-21T13:47:03;11.30;99.90
41922;DHT22;27609;51.002;5.354;2024-02-21T13:49:30;11.30;99.90
41922;DHT22;27609;51.002;5.354;2024-02-21T13:51:56;11.30;99.90
41922;DHT22;27609;51.002;5.354;2024-02-21T13:54:21;11.40;99.90
41922;DHT22;27609;51.002;5.354;2024-02-21T13:56:47;11.60;99.90
41922;DHT22;27609;51.002;5.354;2024-02-21T13:59:13;11.60;99.90
41922;DHT22;27609;51.002;5.354;2024-02-21T14:01:39;11.50;99.90
41922;DHT22;27609;51.002;5.354;2024-02-21T14:04:05;11.50;99.90
41922;DHT22;27609;51.002;5.354;2024-02-21T14:06:30;11.50;99.90
41922;DHT22;27609;51.002;5.354;2024-02-21T14:08:56;11.50;99.90
41922;DHT22;27609;51.002;5.354;2024-02-21T14:11:22;11.40;99.90
41922;DHT22;27609;51.002;5.354;2024-02-21T14:13:48;11.50;99.90
41922;DHT22;27609;51.002;5.354;2024-02-21T14:16:14;11.20;99.90
41922;DHT22;27609;51.002;5.354;2024-02-21T14:18:40;11.20;99.90
41922;DHT22;27609;51.002;5.354;2024-02-21T14:21:09;11.20;99.90
41922;DHT22;27609;51.002;5.354;2024-02-21T14:23:38;11.20;99.90
41922;DHT22;27609;51.002;5.354;2024-02-21T14:26:04;11.00;99.90
41922;DHT22;27609;51.002;5.354;2024-02-21T14:28:30;11.00;99.90
41922;DHT22;27609;51.002;5.354;2024-02-21T14:30:56;11.00;99.90
41922;DHT22;27609;51.002;5.354;2024-02-21T14:33:29;11.00;99.90
41922;DHT22;27609;51.002;5.354;2024-02-21T14:35:56;11.00;99.90
41922;DHT22;27609;51.002;5.354;2024-02-21T14:38:22;10.80;99.90
41922;DHT22;27609;51.002;5.354;2024-02-21T14:40:48;10.80;99.90
41922;DHT22;27609;51.002;5.354;2024-02-21T14:43:14;10.80;99.90
41922;DHT22;27609;51.002;5.354;2024-02-21T14:45:39;10.70;99.90
41922;DHT22;27609;51.002;5.354;2024-02-21T14:48:06;10.80;99.90
41922;DHT22;27609;51.002;5.354;2024-02-21T14:50:32;10.70;99.90
41922;DHT22;27609;51.002;5.354;2024-02-21T14:52:58;10.60;99.90
41922;DHT22;27609;51.002;5.354;2024-02-21T14:55:23;10.50;99.90
41922;DHT22;27609;51.002;5.354;2024-02-21T14:57:50;10.40;99.90
41922;DHT22;27609;51.002;5.354;2024-02-21T15:00:16;10.30;99.90
41922;DHT22;27609;51.002;5.354;2024-02-21T15:02:41;10.30;99.90
41922;DHT22;27609;51.002;5.354;2024-02-21T15:05:08;10.20;99.90
41922;DHT22;27609;51.002;5.354;2024-02-21T15:07:34;10.20;99.90
41922;DHT22;27609;51.002;5.354;2024-02-21T15:10:00;10.00;99.90
41922;DHT22;27609;51.002;5.354;2024-02-21T15:12:26;10.00;99.90
41922;DHT22;27609;51.002;5.354;2024-02-21T15:14:51;9.90;99.90
41922;DHT22;27609;51.002;5.354;2024-02-21T15:17:17;9.80;99.90
41922;DHT22;27609;51.002;5.354;2024-02-21T15:19:46;9.80;99.90
41922;DHT22;27609;51.002;5.354;2024-02-21T15:22:13;9.70;99.90
41922;DHT22;27609;51.002;5.354;2024-02-21T15:24:39;9.70;99.90
41922;DHT22;27609;51.002;5.354;2024-02-21T15:27:06;9.60;99.90
41922;DHT22;27609;51.002;5.354;2024-02-21T15:29:31;9.50;99.90
41922;DHT22;27609;51.002;5.354;2024-02-21T15:31:57;9.60;99.90
41922;DHT22;27609;51.002;5.354;2024-02-21T15:34:23;9.50;99.90
41922;DHT22;27609;51.002;5.354;2024-02-21T15:36:49;9.40;99.90
41922;DHT22;27609;51.002;5.354;2024-02-21T15:39:15;9.40;99.90